sensor_id;sensor_type;location;lat;lon;timestamp;pressure;altitude;pressure_sealevel;temperature;humidity
40946;BME280;55635;50.264;11.918;2024-03-08T00:00:54;95928.75;;;3.10;67.55
40946;BME280;55635;50.264;11.918;2024-03-08T00:03:36;95933.16;;;3.09;68.13
40946;BME280;55635;50.264;11.918;2024-03-08T00:06:16;95920.50;;;2.74;70.01
40946;BME280;55635;50.264;11.918;2024-03-08T00:08:58;95927.63;;;2.72;70.33
40946;BME280;55635;50.264;11.918;2024-03-08T00:11:39;95933.06;;;2.81;70.00
40946;BME280;55635;50.264;11.918;2024-03-08T00:14:20;95923.59;;;2.89;68.84
40946;BME280;55635;50.264;11.918;2024-03-08T00:17:03;95918.19;;;2.91;67.87
40946;BME280;55635;50.264;11.918;2024-03-08T00:19:44;95916.34;;;2.51;71.04
40946;BME280;55635;50.264;11.918;2024-03-08T00:22:25;95924.31;;;2.70;69.80
40946;BME280;55635;50.264;11.918;2024-03-08T00:25:07;95923.00;;;2.55;71.19
40946;BME280;55635;50.264;11.918;2024-03-08T00:27:52;95924.16;;;2.62;71.10
40946;BME280;55635;50.264;11.918;2024-03-08T00:30:36;95915.78;;;2.68;70.64
40946;BME280;55635;50.264;11.918;2024-03-08T00:33:18;95920.22;;;2.78;69.63
40946;BME280;55635;50.264;11.918;2024-03-08T00:35:59;95918.19;;;2.81;69.53
40946;BME280;55635;50.264;11.918;2024-03-08T00:38:40;95917.78;;;2.86;68.78
40946;BME280;55635;50.264;11.918;2024-03-08T00:41:21;95917.59;;;2.78;68.78
40946;BME280;55635;50.264;11.918;2024-03-08T00:44:02;95916.53;;;2.80;69.04
40946;BME280;55635;50.264;11.918;2024-03-08T00:46:45;95910.44;;;2.80;68.85
40946;BME280;55635;50.264;11.918;2024-03-08T00:49:26;95912.38;;;2.78;69.75
40946;BME280;55635;50.264;11.918;2024-03-08T00:52:08;95903.00;;;2.75;69.45
40946;BME280;55635;50.264;11.918;2024-03-08T00:54:49;95901.38;;;2.84;69.34
40946;BME280;55635;50.264;11.918;2024-03-08T00:57:30;95894.75;;;2.80;70.25
40946;BME280;55635;50.264;11.918;2024-03-08T01:00:12;95899.97;;;2.49;70.81
40946;BME280;55635;50.264;11.918;2024-03-08T01:02:53;95894.94;;;2.67;70.55
40946;BME280;55635;50.264;11.918;2024-03-08T01:05:34;95897.19;;;2.71;69.82
40946;BME280;55635;50.264;11.918;2024-03-08T01:08:16;95891.06;;;2.61;71.31
40946;BME280;55635;50.264;11.918;2024-03-08T01:10:57;95893.84;;;2.39;72.06
40946;BME280;55635;50.264;11.918;2024-03-08T01:13:38;95892.06;;;2.40;72.56
40946;BME280;55635;50.264;11.918;2024-03-08T01:16:19;95882.75;;;2.47;71.49
40946;BME280;55635;50.264;11.918;2024-03-08T01:19:02;95882.69;;;2.37;72.76
40946;BME280;55635;50.264;11.918;2024-03-08T01:21:44;95874.97;;;2.15;73.51
40946;BME280;55635;50.264;11.918;2024-03-08T01:24:25;95885.47;;;1.83;76.66
40946;BME280;55635;50.264;11.918;2024-03-08T01:27:06;95875.44;;;1.68;77.75
40946;BME280;55635;50.264;11.918;2024-03-08T01:29:50;95891.91;;;1.79;77.56
40946;BME280;55635;50.264;11.918;2024-03-08T01:32:31;95875.78;;;1.63;78.92
40946;BME280;55635;50.264;11.918;2024-03-08T01:35:12;95877.81;;;1.71;79.74
40946;BME280;55635;50.264;11.918;2024-03-08T01:37:54;95876.22;;;1.79;78.75
40946;BME280;55635;50.264;11.918;2024-03-08T01:40:34;95873.22;;;1.84;78.79
40946;BME280;55635;50.264;11.918;2024-03-08T01:43:28;95863.47;;;1.86;78.72
40946;BME280;55635;50.264;11.918;2024-03-08T01:46:09;95859.66;;;2.10;77.73
40946;BME280;55635;50.264;11.918;2024-03-08T01:48:52;95859.91;;;2.07;78.41
40946;BME280;55635;50.264;11.918;2024-03-08T01:51:33;95851.75;;;2.22;77.02
40946;BME280;55635;50.264;11.918;2024-03-08T01:54:16;95852.59;;;2.52;75.73
40946;BME280;55635;50.264;11.918;2024-03-08T01:56:57;95847.47;;;2.41;75.70
40946;BME280;55635;50.264;11.918;2024-03-08T01:59:39;95847.22;;;2.54;75.34
40946;BME280;55635;50.264;11.918;2024-03-08T02:02:22;95843.97;;;2.61;74.59
40946;BME280;55635;50.264;11.918;2024-03-08T02:05:05;95847.78;;;2.57;74.53
40946;BME280;55635;50.264;11.918;2024-03-08T02:07:47;95839.06;;;2.78;73.53
40946;BME280;55635;50.264;11.918;2024-03-08T02:10:28;95830.78;;;2.72;73.37
40946;BME280;55635;50.264;11.918;2024-03-08T02:13:10;95830.09;;;2.70;73.06
40946;BME280;55635;50.264;11.918;2024-03-08T02:15:56;95829.31;;;2.89;72.11
40946;BME280;55635;50.264;11.918;2024-03-08T02:18:37;95835.22;;;2.82;72.70
40946;BME280;55635;50.264;11.918;2024-03-08T02:21:20;95831.31;;;2.66;73.44
40946;BME280;55635;50.264;11.918;2024-03-08T02:24:02;95835.16;;;2.62;73.76
40946;BME280;55635;50.264;11.918;2024-03-08T02:26:43;95825.00;;;2.69;72.65
40946;BME280;55635;50.264;11.918;2024-03-08T02:29:24;95820.22;;;2.84;72.77
40946;BME280;55635;50.264;11.918;2024-03-08T02:32:06;95818.59;;;2.92;71.29
40946;BME280;55635;50.264;11.918;2024-03-08T02:34:47;95810.72;;;2.92;71.20
40946;BME280;55635;50.264;11.918;2024-03-08T02:37:28;95808.78;;;2.85;70.97
40946;BME280;55635;50.264;11.918;2024-03-08T02:40:10;95815.00;;;2.84;71.09
40946;BME280;55635;50.264;11.918;2024-03-08T02:42:53;95807.41;;;2.81;71.41
40946;BME280;55635;50.264;11.918;2024-03-08T02:45:34;95803.19;;;2.59;72.18
40946;BME280;55635;50.264;11.918;2024-03-08T02:48:16;95803.44;;;2.56;72.83
40946;BME280;55635;50.264;11.918;2024-03-08T02:50:57;95801.09;;;2.53;73.22
40946;BME280;55635;50.264;11.918;2024-03-08T02:53:38;95799.78;;;2.38;74.11
40946;BME280;55635;50.264;11.918;2024-03-08T02:56:19;95805.88;;;2.38;74.34
40946;BME280;55635;50.264;11.918;2024-03-08T02:59:02;95801.16;;;2.32;74.88
40946;BME280;55635;50.264;11.918;2024-03-08T03:01:43;95800.28;;;2.22;75.42
40946;BME280;55635;50.264;11.918;2024-03-08T03:04:24;95808.34;;;2.40;74.82
40946;BME280;55635;50.264;11.918;2024-03-08T03:07:05;95811.91;;;2.39;74.77
40946;BME280;55635;50.264;11.918;2024-03-08T03:09:46;95802.63;;;2.55;73.87
40946;BME280;55635;50.264;11.918;2024-03-08T03:12:31;95808.16;;;2.62;73.51
40946;BME280;55635;50.264;11.918;2024-03-08T03:15:13;95802.66;;;2.65;73.00
40946;BME280;55635;50.264;11.918;2024-03-08T03:17:54;95804.34;;;2.75;71.62
40946;BME280;55635;50.264;11.918;2024-03-08T03:20:36;95801.03;;;2.73;71.67
40946;BME280;55635;50.264;11.918;2024-03-08T03:23:26;95803.41;;;2.46;73.02
40946;BME280;55635;50.264;11.918;2024-03-08T03:26:07;95796.28;;;2.58;72.84
40946;BME280;55635;50.264;11.918;2024-03-08T03:28:48;95804.41;;;2.55;73.49
40946;BME280;55635;50.264;11.918;2024-03-08T03:31:29;95805.66;;;2.60;72.52
40946;BME280;55635;50.264;11.918;2024-03-08T03:34:12;95808.28;;;2.60;72.89
40946;BME280;55635;50.264;11.918;2024-03-08T03:36:52;95808.72;;;2.65;71.58
40946;BME280;55635;50.264;11.918;2024-03-08T03:39:35;95811.88;;;2.59;71.82
40946;BME280;55635;50.264;11.918;2024-03-08T03:42:25;95815.97;;;2.52;71.68
40946;BME280;55635;50.264;11.918;2024-03-08T03:45:08;95816.75;;;2.43;74.05
40946;BME280;55635;50.264;11.918;2024-03-08T03:47:50;95811.94;;;2.48;73.54
40946;BME280;55635;50.264;11.918;2024-03-08T03:50:33;95814.03;;;2.24;75.44
40946;BME280;55635;50.264;11.918;2024-03-08T03:53:17;95809.00;;;2.11;75.66
40946;BME280;55635;50.264;11.918;2024-03-08T03:55:58;95805.22;;;1.95;75.81
40946;BME280;55635;50.264;11.918;2024-03-08T03:58:40;95801.69;;;1.85;76.72
40946;BME280;55635;50.264;11.918;2024-03-08T04:01:21;95806.03;;;2.16;75.61
40946;BME280;55635;50.264;11.918;2024-03-08T04:04:02;95802.97;;;2.11;75.95
40946;BME280;55635;50.264;11.918;2024-03-08T04:06:43;95789.91;;;2.11;75.89
40946;BME280;55635;50.264;11.918;2024-03-08T04:09:26;95802.59;;;1.95;77.36
40946;BME280;55635;50.264;11.918;2024-03-08T04:12:07;95791.94;;;2.07;76.35
40946;BME280;55635;50.264;11.918;2024-03-08T04:14:50;95797.22;;;1.96;77.33
40946;BME280;55635;50.264;11.918;2024-03-08T04:17:31;95791.72;;;1.99;77.78
40946;BME280;55635;50.264;11.918;2024-03-08T04:20:12;95796.69;;;2.23;76.55
40946;BME280;55635;50.264;11.918;2024-03-08T04:22:55;95797.91;;;2.19;76.38
40946;BME280;55635;50.264;11.918;2024-03-08T04:25:36;95788.41;;;2.18;76.45
40946;BME280;55635;50.264;11.918;2024-03-08T04:28:18;95790.63;;;2.02;77.52
40946;BME280;55635;50.264;11.918;2024-03-08T04:30:59;95787.19;;;2.22;76.63
40946;BME280;55635;50.264;11.918;2024-03-08T04:33:41;95781.78;;;2.14;77.45
40946;BME280;55635;50.264;11.918;2024-03-08T04:36:22;95774.50;;;2.17;77.21
40946;BME280;55635;50.264;11.918;2024-03-08T04:39:05;95776.31;;;2.17;77.16
40946;BME280;55635;50.264;11.918;2024-03-08T04:41:46;95775.41;;;2.07;77.94
40946;BME280;55635;50.264;11.918;2024-03-08T04:44:27;95774.75;;;2.14;77.47
40946;BME280;55635;50.264;11.918;2024-03-08T04:47:08;95773.53;;;2.18;77.44
40946;BME280;55635;50.264;11.918;2024-03-08T04:49:50;95773.97;;;2.24;76.78
40946;BME280;55635;50.264;11.918;2024-03-08T04:52:31;95774.38;;;2.19;77.02
40946;BME280;55635;50.264;11.918;2024-03-08T04:55:12;95777.78;;;2.10;78.05
40946;BME280;55635;50.264;11.918;2024-03-08T04:57:54;95771.97;;;2.06;78.27
40946;BME280;55635;50.264;11.918;2024-03-08T05:00:34;95785.78;;;2.18;77.66
40946;BME280;55635;50.264;11.918;2024-03-08T05:03:16;95776.38;;;2.06;78.22
40946;BME280;55635;50.264;11.918;2024-03-08T05:05:57;95776.88;;;2.00;78.93
40946;BME280;55635;50.264;11.918;2024-03-08T05:08:38;95782.84;;;2.11;78.51
40946;BME280;55635;50.264;11.918;2024-03-08T05:11:19;95779.75;;;1.97;79.12
40946;BME280;55635;50.264;11.918;2024-03-08T05:14:00;95771.03;;;2.07;78.69
40946;BME280;55635;50.264;11.918;2024-03-08T05:16:41;95768.78;;;2.03;78.18
40946;BME280;55635;50.264;11.918;2024-03-08T05:19:22;95779.03;;;2.15;78.39
40946;BME280;55635;50.264;11.918;2024-03-08T05:22:04;95774.94;;;2.23;78.13
40946;BME280;55635;50.264;11.918;2024-03-08T05:24:45;95774.91;;;2.13;78.62
40946;BME280;55635;50.264;11.918;2024-03-08T05:27:26;95784.25;;;2.15;78.73
40946;BME280;55635;50.264;11.918;2024-03-08T05:30:09;95782.66;;;2.24;78.33
40946;BME280;55635;50.264;11.918;2024-03-08T05:32:55;95781.44;;;2.28;78.05
40946;BME280;55635;50.264;11.918;2024-03-08T05:35:37;95784.22;;;2.36;77.91
40946;BME280;55635;50.264;11.918;2024-03-08T05:38:18;95767.66;;;2.56;77.10
40946;BME280;55635;50.264;11.918;2024-03-08T05:41:01;95769.59;;;2.64;76.87
40946;BME280;55635;50.264;11.918;2024-03-08T05:43:42;95770.94;;;2.58;77.33
40946;BME280;55635;50.264;11.918;2024-03-08T05:46:24;95763.94;;;2.59;77.14
40946;BME280;55635;50.264;11.918;2024-03-08T05:49:06;95765.91;;;2.76;77.11
40946;BME280;55635;50.264;11.918;2024-03-08T05:51:47;95756.69;;;2.82;76.48
40946;BME280;55635;50.264;11.918;2024-03-08T05:54:29;95760.41;;;2.89;76.60
40946;BME280;55635;50.264;11.918;2024-03-08T05:57:10;95759.06;;;3.04;76.00
40946;BME280;55635;50.264;11.918;2024-03-08T05:59:51;95756.06;;;3.08;75.94
40946;BME280;55635;50.264;11.918;2024-03-08T06:02:32;95748.47;;;3.15;75.62
40946;BME280;55635;50.264;11.918;2024-03-08T06:05:13;95747.38;;;3.17;75.82
40946;BME280;55635;50.264;11.918;2024-03-08T06:07:55;95742.16;;;3.27;75.53
40946;BME280;55635;50.264;11.918;2024-03-08T06:10:37;95742.94;;;3.37;75.21
40946;BME280;55635;50.264;11.918;2024-03-08T06:13:18;95743.63;;;3.49;74.89
40946;BME280;55635;50.264;11.918;2024-03-08T06:16:01;95737.16;;;3.43;75.22
40946;BME280;55635;50.264;11.918;2024-03-08T06:18:45;95739.94;;;3.51;75.25
40946;BME280;55635;50.264;11.918;2024-03-08T06:21:27;95737.44;;;3.50;75.37
40946;BME280;55635;50.264;11.918;2024-03-08T06:24:09;95738.28;;;3.50;75.35
40946;BME280;55635;50.264;11.918;2024-03-08T06:26:50;95742.28;;;3.54;75.42
40946;BME280;55635;50.264;11.918;2024-03-08T06:29:31;95741.44;;;3.63;75.58
40946;BME280;55635;50.264;11.918;2024-03-08T06:32:19;95731.91;;;3.62;75.33
40946;BME280;55635;50.264;11.918;2024-03-08T06:35:01;95734.13;;;3.67;75.18
40946;BME280;55635;50.264;11.918;2024-03-08T06:37:43;95737.00;;;3.73;74.94
40946;BME280;55635;50.264;11.918;2024-03-08T06:40:25;95728.16;;;3.74;74.69
40946;BME280;55635;50.264;11.918;2024-03-08T06:43:06;95719.34;;;3.75;74.79
40946;BME280;55635;50.264;11.918;2024-03-08T06:45:47;95718.91;;;3.80;74.92
40946;BME280;55635;50.264;11.918;2024-03-08T06:48:33;95721.97;;;3.75;74.54
40946;BME280;55635;50.264;11.918;2024-03-08T06:51:15;95721.91;;;3.95;74.20
40946;BME280;55635;50.264;11.918;2024-03-08T06:53:56;95711.88;;;4.27;73.15
40946;BME280;55635;50.264;11.918;2024-03-08T06:56:39;95707.31;;;4.19;72.63
40946;BME280;55635;50.264;11.918;2024-03-08T06:59:22;95706.63;;;4.27;72.47
40946;BME280;55635;50.264;11.918;2024-03-08T07:02:05;95705.41;;;4.21;71.97
40946;BME280;55635;50.264;11.918;2024-03-08T07:04:51;95676.88;;;4.09;71.90
40946;BME280;55635;50.264;11.918;2024-03-08T07:07:34;95701.88;;;4.40;71.53
40946;BME280;55635;50.264;11.918;2024-03-08T07:10:15;95647.69;;;4.21;71.14
40946;BME280;55635;50.264;11.918;2024-03-08T07:12:57;95685.16;;;4.59;70.84
40946;BME280;55635;50.264;11.918;2024-03-08T07:15:39;95680.16;;;4.65;70.33
40946;BME280;55635;50.264;11.918;2024-03-08T07:18:21;95682.44;;;4.78;69.61
40946;BME280;55635;50.264;11.918;2024-03-08T07:21:03;95676.22;;;4.79;69.20
40946;BME280;55635;50.264;11.918;2024-03-08T07:23:44;95678.16;;;5.30;69.43
40946;BME280;55635;50.264;11.918;2024-03-08T07:26:44;95671.09;;;5.91;66.91
40946;BME280;55635;50.264;11.918;2024-03-08T07:29:25;95658.53;;;7.19;65.75
40946;BME280;55635;50.264;11.918;2024-03-08T07:32:06;95653.13;;;7.37;60.56
40946;BME280;55635;50.264;11.918;2024-03-08T07:35:02;95647.53;;;8.27;58.80
40946;BME280;55635;50.264;11.918;2024-03-08T07:37:44;95630.88;;;8.35;57.91
40946;BME280;55635;50.264;11.918;2024-03-08T07:40:26;95625.75;;;8.33;56.29
40946;BME280;55635;50.264;11.918;2024-03-08T07:43:08;95630.19;;;9.48;56.14
40946;BME280;55635;50.264;11.918;2024-03-08T07:45:49;95614.88;;;9.58;55.64
40946;BME280;55635;50.264;11.918;2024-03-08T07:48:30;95605.34;;;9.49;52.25
40946;BME280;55635;50.264;11.918;2024-03-08T07:51:16;95609.03;;;9.02;52.31
40946;BME280;55635;50.264;11.918;2024-03-08T07:53:58;95619.94;;;8.99;53.86
40946;BME280;55635;50.264;11.918;2024-03-08T07:56:41;95614.47;;;8.78;54.79
40946;BME280;55635;50.264;11.918;2024-03-08T07:59:23;95602.19;;;8.07;54.47
40946;BME280;55635;50.264;11.918;2024-03-08T08:02:04;95615.19;;;7.38;57.50
40946;BME280;55635;50.264;11.918;2024-03-08T08:04:46;95608.59;;;7.09;57.15
40946;BME280;55635;50.264;11.918;2024-03-08T08:07:27;95611.03;;;7.67;56.76
40946;BME280;55635;50.264;11.918;2024-03-08T08:10:09;95604.03;;;8.07;56.84
40946;BME280;55635;50.264;11.918;2024-03-08T08:12:56;95601.41;;;7.99;56.01
40946;BME280;55635;50.264;11.918;2024-03-08T08:15:38;95598.22;;;8.28;57.88
40946;BME280;55635;50.264;11.918;2024-03-08T08:18:19;95581.31;;;7.98;56.83
40946;BME280;55635;50.264;11.918;2024-03-08T08:21:02;95588.69;;;8.02;55.56
40946;BME280;55635;50.264;11.918;2024-03-08T08:23:44;95593.16;;;8.49;55.66
40946;BME280;55635;50.264;11.918;2024-03-08T08:26:25;95582.72;;;8.86;55.08
40946;BME280;55635;50.264;11.918;2024-03-08T08:29:07;95589.41;;;7.80;55.66
40946;BME280;55635;50.264;11.918;2024-03-08T08:31:49;95591.81;;;7.43;55.81
40946;BME280;55635;50.264;11.918;2024-03-08T08:34:31;95595.75;;;7.23;58.56
40946;BME280;55635;50.264;11.918;2024-03-08T08:37:12;95591.47;;;7.13;58.10
40946;BME280;55635;50.264;11.918;2024-03-08T08:39:53;95581.50;;;7.80;56.71
40946;BME280;55635;50.264;11.918;2024-03-08T08:42:35;95601.81;;;6.75;59.09
40946;BME280;55635;50.264;11.918;2024-03-08T08:45:17;95594.44;;;7.51;57.06
40946;BME280;55635;50.264;11.918;2024-03-08T08:47:59;95590.13;;;7.50;58.27
40946;BME280;55635;50.264;11.918;2024-03-08T08:50:40;95586.44;;;7.83;56.51
40946;BME280;55635;50.264;11.918;2024-03-08T08:53:22;95584.13;;;8.35;55.12
40946;BME280;55635;50.264;11.918;2024-03-08T08:56:04;95587.84;;;7.55;58.41
40946;BME280;55635;50.264;11.918;2024-03-08T08:58:45;95588.19;;;7.20;57.93
40946;BME280;55635;50.264;11.918;2024-03-08T09:01:26;95587.19;;;7.45;57.59
40946;BME280;55635;50.264;11.918;2024-03-08T09:04:08;95604.16;;;7.34;58.51
40946;BME280;55635;50.264;11.918;2024-03-08T09:06:49;95593.78;;;7.41;60.98
40946;BME280;55635;50.264;11.918;2024-03-08T09:09:30;95583.72;;;6.72;60.02
40946;BME280;55635;50.264;11.918;2024-03-08T09:12:11;95591.22;;;6.00;63.16
40946;BME280;55635;50.264;11.918;2024-03-08T09:14:54;95591.44;;;6.65;62.73
40946;BME280;55635;50.264;11.918;2024-03-08T09:17:35;95585.03;;;7.16;59.69
40946;BME280;55635;50.264;11.918;2024-03-08T09:20:17;95582.91;;;7.03;60.10
40946;BME280;55635;50.264;11.918;2024-03-08T09:22:58;95573.78;;;6.41;60.53
40946;BME280;55635;50.264;11.918;2024-03-08T09:25:39;95587.06;;;6.32;63.07
40946;BME280;55635;50.264;11.918;2024-03-08T09:28:21;95572.03;;;7.23;59.96
40946;BME280;55635;50.264;11.918;2024-03-08T09:31:02;95572.81;;;6.67;59.34
40946;BME280;55635;50.264;11.918;2024-03-08T09:33:43;95575.50;;;7.23;58.44
40946;BME280;55635;50.264;11.918;2024-03-08T09:36:25;95559.13;;;6.47;59.57
40946;BME280;55635;50.264;11.918;2024-03-08T09:39:06;95567.28;;;6.28;63.66
40946;BME280;55635;50.264;11.918;2024-03-08T09:41:48;95576.34;;;6.33;63.26
40946;BME280;55635;50.264;11.918;2024-03-08T09:44:30;95568.66;;;5.90;64.10
40946;BME280;55635;50.264;11.918;2024-03-08T09:47:14;95562.91;;;5.94;64.87
40946;BME280;55635;50.264;11.918;2024-03-08T09:49:55;95558.56;;;6.19;65.53
40946;BME280;55635;50.264;11.918;2024-03-08T09:52:37;95544.97;;;6.56;61.10
40946;BME280;55635;50.264;11.918;2024-03-08T09:55:18;95562.16;;;7.08;61.34
40946;BME280;55635;50.264;11.918;2024-03-08T09:58:06;95543.25;;;7.68;62.46
40946;BME280;55635;50.264;11.918;2024-03-08T10:01:03;95537.22;;;8.06;57.78
40946;BME280;55635;50.264;11.918;2024-03-08T10:03:47;95535.38;;;7.60;57.51
40946;BME280;55635;50.264;11.918;2024-03-08T10:06:30;95550.94;;;6.98;60.56
40946;BME280;55635;50.264;11.918;2024-03-08T10:09:12;95526.06;;;6.93;60.47
40946;BME280;55635;50.264;11.918;2024-03-08T10:11:57;95519.63;;;8.83;57.11
40946;BME280;55635;50.264;11.918;2024-03-08T10:14:41;95510.34;;;8.34;55.27
40946;BME280;55635;50.264;11.918;2024-03-08T10:17:23;95498.13;;;8.33;57.87
40946;BME280;55635;50.264;11.918;2024-03-08T10:20:09;95501.88;;;8.07;56.22
40946;BME280;55635;50.264;11.918;2024-03-08T10:22:55;95503.34;;;9.90;55.68
40946;BME280;55635;50.264;11.918;2024-03-08T10:25:37;95495.94;;;10.00;53.04
40946;BME280;55635;50.264;11.918;2024-03-08T10:28:18;95474.34;;;11.17;51.77
40946;BME280;55635;50.264;11.918;2024-03-08T10:30:58;95489.16;;;11.05;49.28
40946;BME280;55635;50.264;11.918;2024-03-08T10:33:39;95485.22;;;10.59;49.21
40946;BME280;55635;50.264;11.918;2024-03-08T10:36:21;95492.25;;;11.09;49.10
40946;BME280;55635;50.264;11.918;2024-03-08T10:39:02;95482.53;;;12.12;47.25
40946;BME280;55635;50.264;11.918;2024-03-08T10:41:44;95473.88;;;11.97;47.70
40946;BME280;55635;50.264;11.918;2024-03-08T10:47:26;95466.97;;;12.76;46.80
40946;BME280;55635;50.264;11.918;2024-03-08T10:50:20;95472.75;;;12.99;46.76
40946;BME280;55635;50.264;11.918;2024-03-08T10:53:06;95465.50;;;12.47;46.10
40946;BME280;55635;50.264;11.918;2024-03-08T10:55:53;95455.63;;;12.28;48.49
40946;BME280;55635;50.264;11.918;2024-03-08T10:58:38;95451.78;;;12.44;47.38
40946;BME280;55635;50.264;11.918;2024-03-08T11:01:20;95448.69;;;12.40;45.61
40946;BME280;55635;50.264;11.918;2024-03-08T11:04:04;95449.13;;;12.44;45.21
40946;BME280;55635;50.264;11.918;2024-03-08T11:06:46;95406.41;;;12.65;45.27
40946;BME280;55635;50.264;11.918;2024-03-08T11:09:37;95454.00;;;11.52;49.24
40946;BME280;55635;50.264;11.918;2024-03-08T11:15:11;95451.34;;;11.24;49.60
40946;BME280;55635;50.264;11.918;2024-03-08T11:17:58;95426.41;;;11.53;48.23
40946;BME280;55635;50.264;11.918;2024-03-08T11:20:41;95429.78;;;11.06;46.68
40946;BME280;55635;50.264;11.918;2024-03-08T11:23:25;95405.91;;;11.75;47.11
40946;BME280;55635;50.264;11.918;2024-03-08T11:26:20;95401.28;;;12.70;46.09
40946;BME280;55635;50.264;11.918;2024-03-08T11:32:12;95398.81;;;12.55;44.20
40946;BME280;55635;50.264;11.918;2024-03-08T11:34:54;95391.06;;;13.20;44.20
40946;BME280;55635;50.264;11.918;2024-03-08T11:37:36;95383.56;;;13.74;43.29
40946;BME280;55635;50.264;11.918;2024-03-08T11:40:17;95371.63;;;12.80;44.47
40946;BME280;55635;50.264;11.918;2024-03-08T11:43:00;95376.84;;;13.58;43.37
40946;BME280;55635;50.264;11.918;2024-03-08T11:45:44;95375.50;;;12.77;43.77
40946;BME280;55635;50.264;11.918;2024-03-08T11:48:25;95379.09;;;12.17;44.90
40946;BME280;55635;50.264;11.918;2024-03-08T11:51:06;95370.16;;;12.51;43.80
40946;BME280;55635;50.264;11.918;2024-03-08T11:53:49;95355.84;;;12.59;46.45
40946;BME280;55635;50.264;11.918;2024-03-08T11:56:33;95338.81;;;11.60;46.10
40946;BME280;55635;50.264;11.918;2024-03-08T11:59:14;95338.47;;;12.49;47.25
40946;BME280;55635;50.264;11.918;2024-03-08T12:02:06;95344.16;;;13.25;44.42
40946;BME280;55635;50.264;11.918;2024-03-08T12:04:47;95350.53;;;12.91;43.12
40946;BME280;55635;50.264;11.918;2024-03-08T12:07:29;95325.16;;;13.08;44.91
40946;BME280;55635;50.264;11.918;2024-03-08T12:10:21;95341.91;;;14.24;46.94
40946;BME280;55635;50.264;11.918;2024-03-08T12:13:02;95322.84;;;13.38;43.44
40946;BME280;55635;50.264;11.918;2024-03-08T12:15:44;95323.06;;;13.04;44.60
40946;BME280;55635;50.264;11.918;2024-03-08T12:18:38;95314.72;;;12.74;43.57
40946;BME280;55635;50.264;11.918;2024-03-08T12:21:19;95312.06;;;12.68;43.85
40946;BME280;55635;50.264;11.918;2024-03-08T12:24:10;95308.94;;;12.97;43.62
40946;BME280;55635;50.264;11.918;2024-03-08T12:26:54;95304.28;;;12.92;43.85
40946;BME280;55635;50.264;11.918;2024-03-08T12:29:38;95308.84;;;13.49;43.40
40946;BME280;55635;50.264;11.918;2024-03-08T12:32:20;95304.28;;;12.79;43.45
40946;BME280;55635;50.264;11.918;2024-03-08T12:35:07;95300.91;;;13.87;42.31
40946;BME280;55635;50.264;11.918;2024-03-08T12:37:54;95295.66;;;12.90;43.77
40946;BME280;55635;50.264;11.918;2024-03-08T12:40:35;95299.97;;;13.69;42.36
40946;BME280;55635;50.264;11.918;2024-03-08T12:43:21;95295.91;;;13.59;42.04
40946;BME280;55635;50.264;11.918;2024-03-08T12:46:02;95269.44;;;14.02;42.22
40946;BME280;55635;50.264;11.918;2024-03-08T12:48:45;95280.25;;;13.76;42.13
40946;BME280;55635;50.264;11.918;2024-03-08T12:51:27;95273.78;;;12.88;42.43
40946;BME280;55635;50.264;11.918;2024-03-08T12:54:10;95268.19;;;13.23;42.87
40946;BME280;55635;50.264;11.918;2024-03-08T12:56:51;95266.88;;;13.51;44.86
40946;BME280;55635;50.264;11.918;2024-03-08T12:59:34;95256.56;;;13.61;42.69
40946;BME280;55635;50.264;11.918;2024-03-08T13:02:15;95262.13;;;13.53;43.06
40946;BME280;55635;50.264;11.918;2024-03-08T13:04:58;95259.88;;;12.86;43.77
40946;BME280;55635;50.264;11.918;2024-03-08T13:07:39;95251.22;;;13.61;45.16
40946;BME280;55635;50.264;11.918;2024-03-08T13:10:20;95240.09;;;13.71;43.03
40946;BME280;55635;50.264;11.918;2024-03-08T13:13:03;95239.75;;;13.17;44.41
40946;BME280;55635;50.264;11.918;2024-03-08T13:15:45;95210.66;;;13.59;43.74
40946;BME280;55635;50.264;11.918;2024-03-08T13:18:26;95240.56;;;13.61;42.36
40946;BME280;55635;50.264;11.918;2024-03-08T13:21:09;95242.28;;;13.43;42.04
40946;BME280;55635;50.264;11.918;2024-03-08T13:23:50;95242.38;;;13.23;42.36
40946;BME280;55635;50.264;11.918;2024-03-08T13:26:34;95236.13;;;13.49;41.97
40946;BME280;55635;50.264;11.918;2024-03-08T13:29:15;95252.69;;;12.87;43.33
40946;BME280;55635;50.264;11.918;2024-03-08T13:31:56;95248.00;;;12.76;43.26
40946;BME280;55635;50.264;11.918;2024-03-08T13:34:42;95256.72;;;13.22;44.37
40946;BME280;55635;50.264;11.918;2024-03-08T13:37:24;95251.94;;;12.47;44.35
40946;BME280;55635;50.264;11.918;2024-03-08T13:40:06;95238.50;;;13.19;44.06
40946;BME280;55635;50.264;11.918;2024-03-08T13:42:48;95216.38;;;13.25;43.71
40946;BME280;55635;50.264;11.918;2024-03-08T13:45:29;95219.34;;;14.11;42.46
40946;BME280;55635;50.264;11.918;2024-03-08T13:48:10;95198.78;;;14.18;41.15
40946;BME280;55635;50.264;11.918;2024-03-08T13:50:53;95202.16;;;13.44;41.66
40946;BME280;55635;50.264;11.918;2024-03-08T13:53:36;95215.50;;;13.31;42.90
40946;BME280;55635;50.264;11.918;2024-03-08T13:56:17;95206.38;;;13.07;43.42
40946;BME280;55635;50.264;11.918;2024-03-08T13:58:58;95222.16;;;13.09;43.49
40946;BME280;55635;50.264;11.918;2024-03-08T14:01:38;95217.31;;;12.67;43.92
40946;BME280;55635;50.264;11.918;2024-03-08T14:04:19;95204.03;;;12.67;43.11
40946;BME280;55635;50.264;11.918;2024-03-08T14:07:00;95209.22;;;12.22;45.04
40946;BME280;55635;50.264;11.918;2024-03-08T14:09:44;95203.66;;;12.57;44.54
40946;BME280;55635;50.264;11.918;2024-03-08T14:12:25;95192.09;;;12.89;43.70
40946;BME280;55635;50.264;11.918;2024-03-08T14:15:07;95181.50;;;12.76;43.80
40946;BME280;55635;50.264;11.918;2024-03-08T14:17:53;95180.25;;;12.78;43.49
40946;BME280;55635;50.264;11.918;2024-03-08T14:20:35;95189.22;;;12.90;44.16
40946;BME280;55635;50.264;11.918;2024-03-08T14:23:16;95179.69;;;13.27;43.35
40946;BME280;55635;50.264;11.918;2024-03-08T14:25:57;95177.69;;;13.16;42.36